»·PEaware :: SKY702 BRAZ-KDRO

SKY702 :: BRAZ-KDRO

FLIGHT INFORMATION

Flight Status: Arrived
Operator:
Sky High Charters
More flights by this operator :: More flights under this callsign
Pilot: Dustin P. (9568)
Aircraft: CESSNA 182 SKYLANE
(C182)
More flights by this aircraft type
Origin: BRAZ
Destination: KDRO Durango-La Plata Co
United States
More flights between these airports :: More routes between these airports
Route: BRAZO V211 COKRI
File this flight plan on PilotEdge
Remarks: +CW / SKYHIGH 2.2
Altitude:
(Current/Filed)
12,000ft
Speed:
(Current/Filed)
150kts
Departed: 15-Jun-19 11:56 AM
Arrived: 15-Jun-19 12:53 PM
Distance/Time
Traveled:
Not Available
Distance/Time
To Go:
Arrived

Flight Plot

Page will automatically refresh every two minutes.


Map Options




Map Legend


Flown Route
Filed Route
Departure Airport
Arrival Airport
Navaid (VOR, NDB)
Fix

Horizontal Profiles

Position Reports

Time Latitude Longitude Heading Altitude Ground
Speed
15-Jun-19 11:54 36.636482 -106.002531 286 12579ft 95kts
15-Jun-19 11:55 36.646398 -106.036817 287 12586ft 111kts
15-Jun-19 11:56 36.657206 -106.074549 287 12587ft 118kts
15-Jun-19 11:57 36.668360 -106.113485 287 12588ft 120kts
15-Jun-19 11:58 36.679595 -106.152837 287 12587ft 121kts
15-Jun-19 11:59 36.690890 -106.192372 287 12587ft 121kts
15-Jun-19 12:00 36.702194 -106.231965 287 12586ft 121kts
15-Jun-19 12:01 36.713531 -106.271747 287 12586ft 121kts
15-Jun-19 12:02 36.724487 -106.310314 287 12699ft 116kts
15-Jun-19 12:03 36.735414 -106.348875 287 12708ft 119kts
15-Jun-19 12:04 36.746574 -106.388198 287 12708ft 120kts
15-Jun-19 12:05 36.757790 -106.427784 287 12707ft 121kts
15-Jun-19 12:06 36.768989 -106.467355 287 12706ft 120kts
15-Jun-19 12:07 36.780151 -106.506899 287 12707ft 121kts
15-Jun-19 12:08 36.791366 -106.546649 287 12706ft 121kts
15-Jun-19 12:09 36.802546 -106.586347 287 12707ft 121kts
15-Jun-19 12:10 36.813716 -106.626074 286 12706ft 121kts
15-Jun-19 12:11 36.826658 -106.671157 289 12203ft 136kts
15-Jun-19 12:12 36.839904 -106.713310 289 12202ft 126kts
15-Jun-19 12:13 36.852383 -106.753727 288 12206ft 123kts
15-Jun-19 12:14 36.864690 -106.793828 288 12206ft 123kts
15-Jun-19 12:15 36.876980 -106.833888 288 12206ft 123kts
15-Jun-19 12:16 36.889257 -106.873939 288 12206ft 123kts
15-Jun-19 12:17 36.901570 -106.914160 288 12206ft 123kts
15-Jun-19 12:18 36.913824 -106.954247 288 12206ft 123kts
15-Jun-19 12:19 36.926071 -106.994372 288 12206ft 123kts
15-Jun-19 12:20 36.938296 -107.034478 288 12206ft 123kts
15-Jun-19 12:21 36.950520 -107.074647 288 12206ft 123kts
15-Jun-19 12:22 36.962771 -107.114958 288 12206ft 123kts
15-Jun-19 12:23 36.974971 -107.155148 288 12206ft 123kts
15-Jun-19 12:24 36.987154 -107.195345 288 12206ft 123kts
15-Jun-19 12:25 36.999302 -107.235568 288 12206ft 123kts
15-Jun-19 12:26 37.011453 -107.275803 288 12206ft 123kts
15-Jun-19 12:28 37.023590 -107.316047 288 12206ft 123kts
15-Jun-19 12:29 37.035760 -107.356459 288 12206ft 123kts
15-Jun-19 12:30 37.047875 -107.396747 288 12207ft 123kts
15-Jun-19 12:31 37.059988 -107.437085 288 12206ft 123kts
15-Jun-19 12:32 37.064991 -107.477765 234 12125ft 126kts
15-Jun-19 12:33 37.031921 -107.500058 216 11469ft 146kts
15-Jun-19 12:34 36.998731 -107.531231 224 10464ft 141kts
15-Jun-19 12:35 36.975906 -107.560011 231 10207ft 99kts
15-Jun-19 12:36 36.959055 -107.587527 237 10183ft 106kts
15-Jun-19 12:37 36.943867 -107.620517 245 10161ft 108kts
15-Jun-19 12:38 36.932390 -107.654863 251 10164ft 106kts
15-Jun-19 12:39 36.924413 -107.690922 258 10169ft 109kts
15-Jun-19 12:40 36.920238 -107.728672 265 10167ft 109kts
15-Jun-19 12:41 36.920038 -107.766844 272 10167ft 110kts
15-Jun-19 12:42 36.923850 -107.804802 279 10167ft 110kts
15-Jun-19 12:43 36.931653 -107.841949 286 10166ft 110kts
15-Jun-19 12:44 36.941965 -107.878282 286 10167ft 110kts
15-Jun-19 12:45 36.959097 -107.909458 327 10171ft 115kts
15-Jun-19 12:46 36.990078 -107.908717 44 9729ft 153kts
15-Jun-19 12:47 37.020557 -107.878167 33 9460ft 120kts
15-Jun-19 12:47 37.044731 -107.855332 35 8797ft 140kts
15-Jun-19 12:49 37.076309 -107.825397 34 7946ft 118kts
15-Jun-19 12:50 37.099429 -107.803472 33 7506ft 90kts
15-Jun-19 12:50 37.118535 -107.785174 35 7051ft 112kts
15-Jun-19 12:51 37.138575 -107.766111 34 6843ft 78kts
15-Jun-19 12:52 37.148222 -107.758205 305 6688ft 7kts
15-Jun-19 12:53 37.148257 -107.758267 305 6688ft 0kts
15-Jun-19 12:54 37.150594 -107.756408 36 6688ft 17kts
15-Jun-19 12:55 37.154143 -107.753049 29 6688ft 5kts
15-Jun-19 12:56 37.154431 -107.753301 297 6688ft 0kts
15-Jun-19 12:57 37.154431 -107.753300 297 6688ft 0kts
15-Jun-19 12:58 37.154441 -107.753302 304 6688ft 0kts
15-Jun-19 12:59 37.154441 -107.753302 304 6688ft 0kts
15-Jun-19 13:00 37.154441 -107.753302 304 6688ft 0kts

Navigation Log

Ident Type
Flight plan parsing failed, navigation log unavailable